Time;durP1;ratioP1;P1;durP2;ratioP2;P2;SDS_P1;SDS_P2;PMS_P1;PMS_P2;Temp;Humidity;BMP_temperature;BMP_pressure;BME280_temperature;BME280_humidity;BME280_pressure;Samples;Min_cycle;Max_cycle;Signal;HPM_P1;HPM_P2
2021/09/10 00:06:36;;;;;;;5.90;4.30;;;21.50;99.90;;;;;;6690034;88;20205;-78
2021/09/10 00:16:37;;;;;;;8.52;5.53;;;21.50;99.90;;;;;;6689335;88;20189;-78
2021/09/10 00:26:37;;;;;;;8.15;4.93;;;21.50;99.90;;;;;;6689870;88;20212;-78
2021/09/10 00:36:38;;;;;;;7.15;4.93;;;21.50;99.90;;;;;;6685915;89;20223;-79
2021/09/10 00:57:40;;;;;;;8.07;4.95;;;21.20;99.90;;;;;;6690544;88;20183;-76
2021/09/10 01:07:42;;;;;;;6.70;4.78;;;21.20;99.90;;;;;;6682479;88;20675;-77
2021/09/10 01:17:42;;;;;;;6.47;4.72;;;21.10;99.90;;;;;;6674458;88;20179;-77
2021/09/10 01:27:46;;;;;;;7.32;4.87;;;21.00;99.90;;;;;;6682951;88;20200;-77
2021/09/10 01:37:47;;;;;;;7.90;5.00;;;20.90;99.90;;;;;;6693938;88;20307;-77
2021/09/10 01:47:48;;;;;;;6.80;5.10;;;20.90;99.90;;;;;;6682982;88;20755;-77
2021/09/10 01:57:50;;;;;;;7.95;4.90;;;20.70;99.90;;;;;;6701836;88;20197;-78
2021/09/10 02:07:50;;;;;;;8.38;5.25;;;20.80;99.90;;;;;;6692703;88;20211;-78
2021/09/10 02:17:51;;;;;;;8.83;5.40;;;20.70;99.90;;;;;;6678691;88;20327;-77
2021/09/10 02:27:51;;;;;;;7.60;5.05;;;20.50;99.90;;;;;;6678547;88;20526;-77
2021/09/10 02:37:53;;;;;;;7.95;5.25;;;20.60;99.90;;;;;;6689661;88;20239;-77
2021/09/10 02:47:54;;;;;;;6.85;5.20;;;20.50;99.90;;;;;;6688385;88;20317;-77
2021/09/10 02:57:55;;;;;;;8.80;5.32;;;20.50;99.90;;;;;;6687437;88;20214;-77
2021/09/10 03:07:57;;;;;;;11.32;5.37;;;20.50;99.90;;;;;;6686310;88;20237;-77
2021/09/10 03:17:57;;;;;;;8.50;5.60;;;20.50;99.90;;;;;;6684830;88;20273;-77
2021/09/10 03:27:58;;;;;;;6.70;4.87;;;20.40;99.90;;;;;;6690402;88;20276;-77
2021/09/10 03:37:58;;;;;;;7.78;5.53;;;20.40;99.90;;;;;;6686586;88;20191;-77
2021/09/10 03:47:59;;;;;;;6.80;5.50;;;20.30;99.90;;;;;;6685722;88;20199;-78
2021/09/10 03:58:00;;;;;;;8.57;5.30;;;20.30;99.90;;;;;;6691998;88;20183;-78
2021/09/10 04:08:00;;;;;;;6.57;5.18;;;20.30;99.90;;;;;;6682665;88;20202;-77
2021/09/10 04:18:02;;;;;;;8.27;5.25;;;20.30;99.90;;;;;;6679786;89;20282;-77
2021/09/10 04:28:02;;;;;;;8.57;5.32;;;20.30;99.90;;;;;;6681232;88;20194;-77
2021/09/10 04:38:03;;;;;;;9.68;6.37;;;20.20;99.90;;;;;;6690900;88;20234;-77
2021/09/10 04:48:03;;;;;;;9.07;5.72;;;20.10;99.90;;;;;;6697461;88;20354;-77
2021/09/10 04:58:04;;;;;;;8.25;5.70;;;20.00;99.90;;;;;;6669757;89;20175;-77
2021/09/10 05:08:04;;;;;;;8.82;5.90;;;19.90;99.90;;;;;;6683203;88;20723;-77
2021/09/10 05:18:05;;;;;;;8.80;5.28;;;19.80;99.90;;;;;;6688890;88;20211;-77
2021/09/10 05:28:05;;;;;;;11.55;5.87;;;19.80;99.90;;;;;;6673265;89;20218;-77
2021/09/10 05:38:06;;;;;;;8.80;5.75;;;19.80;99.90;;;;;;6679233;88;20192;-77
2021/09/10 05:48:06;;;;;;;10.57;5.75;;;19.80;99.90;;;;;;6682523;88;20620;-77
2021/09/10 05:58:07;;;;;;;11.05;5.75;;;19.90;99.90;;;;;;6686409;88;20196;-77
2021/09/10 06:08:08;;;;;;;7.72;5.85;;;20.00;99.90;;;;;;6695333;88;20820;-77
2021/09/10 06:18:08;;;;;;;7.25;5.25;;;20.30;99.90;;;;;;6679355;88;20715;-76
2021/09/10 06:28:09;;;;;;;9.73;5.28;;;20.60;99.90;;;;;;6681376;88;20262;-76
2021/09/10 06:48:14;;;;;;;8.63;4.87;;;20.90;99.90;;;;;;6710299;88;20205;-79
2021/09/10 06:58:14;;;;;;;7.07;5.10;;;21.00;99.90;;;;;;6706976;88;20569;-78
2021/09/10 07:08:15;;;;;;;7.97;4.90;;;21.20;99.90;;;;;;6715182;88;20656;-79
2021/09/10 07:18:15;;;;;;;7.40;4.30;;;21.30;99.90;;;;;;6712891;88;20219;-79
2021/09/10 07:28:16;;;;;;;6.45;4.12;;;21.50;99.90;;;;;;6713881;88;20808;-79
2021/09/10 07:38:17;;;;;;;5.87;4.10;;;21.60;99.90;;;;;;6705459;88;20264;-77
2021/09/10 07:48:17;;;;;;;6.22;4.57;;;21.80;99.90;;;;;;6707134;88;20239;-78
2021/09/10 07:58:20;;;;;;;5.90;4.00;;;21.80;99.90;;;;;;6706512;88;20208;-81
2021/09/10 08:08:20;;;;;;;7.00;4.10;;;21.60;99.90;;;;;;6706062;88;20764;-81
2021/09/10 08:18:21;;;;;;;8.23;4.20;;;21.60;99.90;;;;;;6704407;88;20305;-80
2021/09/10 08:28:21;;;;;;;6.75;3.15;;;21.70;99.90;;;;;;6705661;88;20657;-81
2021/09/10 08:38:22;;;;;;;6.93;3.50;;;21.90;99.90;;;;;;6708402;88;20305;-81
2021/09/10 08:48:24;;;;;;;6.03;2.90;;;22.20;99.90;;;;;;6714803;88;20215;-81
2021/09/10 08:58:25;;;;;;;5.43;2.80;;;22.50;99.90;;;;;;6708784;88;20273;-81
2021/09/10 09:08:26;;;;;;;5.40;2.72;;;23.30;99.90;;;;;;6707633;88;20234;-81
2021/09/10 09:18:40;;;;;;;5.32;3.15;;;24.60;99.90;;;;;;6707414;88;20221;-81
2021/09/10 09:28:41;;;;;;;;;;;25.00;99.90;;;;;;6707302;88;20649;-79
2021/09/10 09:38:43;;;;;;;6.00;3.22;;;25.60;99.90;;;;;;6707130;88;20049;-79
2021/09/10 09:48:47;;;;;;;4.73;2.87;;;25.90;99.90;;;;;;6703622;88;20197;-78
2021/09/10 09:58:48;;;;;;;4.35;2.50;;;26.30;99.90;;;;;;6705723;88;20399;-79
2021/09/10 10:09:02;;;;;;;3.05;2.10;;;26.80;99.90;;;;;;6709930;88;20700;-79
2021/09/10 10:19:05;;;;;;;5.72;2.22;;;26.10;99.90;;;;;;6705197;88;20370;-79
2021/09/10 10:29:07;;;;;;;6.33;2.30;;;25.60;99.90;;;;;;6692393;88;20190;-78
2021/09/10 10:39:08;;;;;;;3.03;1.83;;;26.20;99.90;;;;;;6690607;88;20642;-78
2021/09/10 10:49:08;;;;;;;3.33;1.70;;;25.40;99.90;;;;;;6694584;88;20187;-80
2021/09/10 10:59:15;;;;;;;5.00;1.90;;;25.00;99.90;;;;;;6705782;88;20188;-83
2021/09/10 11:09:15;;;;;;;4.78;2.00;;;24.80;99.90;;;;;;6698028;89;20192;-83
2021/09/10 11:29:19;;;;;;;2.37;2.00;;;27.10;99.90;;;;;;6699574;88;20205;-85
2021/09/10 11:39:20;;;;;;;2.53;1.87;;;26.10;99.90;;;;;;6681629;89;20927;-85
2021/09/10 11:49:21;;;;;;;3.37;1.85;;;27.30;99.90;;;;;;6681731;89;20168;-86
2021/09/10 11:59:30;;;;;;;3.08;1.95;;;27.90;99.90;;;;;;6681522;89;20325;-83
2021/09/10 12:09:37;;;;;;;4.45;2.08;;;27.10;99.90;;;;;;6661161;89;20165;-84
2021/09/10 12:19:50;;;;;;;4.25;2.53;;;27.00;99.90;;;;;;6630470;89;20161;-84
2021/09/10 12:30:09;;;;;;;2.93;2.20;;;26.70;99.90;;;;;;6614321;89;20187;-84
2021/09/10 12:40:10;;;;;;;3.45;2.15;;;27.10;99.90;;;;;;6630274;89;20617;-83
2021/09/10 12:50:12;;;;;;;4.20;2.42;;;27.20;99.90;;;;;;6671241;89;20160;-84
2021/09/10 13:00:13;;;;;;;3.92;2.03;;;26.40;99.90;;;;;;6681929;89;20290;-83
2021/09/10 13:10:14;;;;;;;3.25;2.20;;;26.30;99.90;;;;;;6682043;89;20173;-86
2021/09/10 13:20:17;;;;;;;2.97;2.00;;;26.60;99.90;;;;;;6678353;89;20214;-87
2021/09/10 13:30:21;;;;;;;3.08;1.70;;;26.10;99.90;;;;;;6697521;89;20143;-84
2021/09/10 13:40:22;;;;;;;4.18;2.00;;;25.60;99.90;;;;;;6702171;89;20245;-84
2021/09/10 13:50:23;;;;;;;2.50;1.90;;;26.50;99.90;;;;;;6701679;88;20170;-82
2021/09/10 14:00:23;;;;;;;2.75;1.80;;;27.70;99.90;;;;;;6701752;89;20296;-84
2021/09/10 14:10:24;;;;;;;3.47;1.42;;;27.00;99.90;;;;;;6701571;89;20152;-83
2021/09/10 14:20:25;;;;;;;2.28;1.35;;;26.80;99.90;;;;;;6701257;88;20182;-85
2021/09/10 14:30:25;;;;;;;1.98;1.45;;;28.00;99.90;;;;;;6700804;88;20185;-86
2021/09/10 14:40:29;;;;;;;3.97;1.60;;;27.00;99.90;;;;;;6701027;89;20159;-85
2021/09/10 14:50:30;;;;;;;2.92;1.30;;;26.70;99.90;;;;;;6683901;89;20216;-84
2021/09/10 15:00:31;;;;;;;1.62;1.00;;;26.90;99.90;;;;;;6700883;89;20182;-83
2021/09/10 15:10:32;;;;;;;1.90;0.80;;;26.70;99.90;;;;;;6700618;89;20152;-84
2021/09/10 15:20:32;;;;;;;2.33;1.10;;;26.10;99.90;;;;;;6700402;88;20164;-85
2021/09/10 15:30:34;;;;;;;3.85;1.17;;;26.10;99.90;;;;;;6699858;88;20192;-84
2021/09/10 15:40:35;;;;;;;2.60;1.30;;;25.20;99.90;;;;;;6695631;88;20194;-83
2021/09/10 15:50:35;;;;;;;2.25;1.23;;;24.80;99.90;;;;;;6698977;89;20210;-83
2021/09/10 16:00:36;;;;;;;3.00;1.40;;;24.40;99.90;;;;;;6698698;89;20171;-82
2021/09/10 16:10:37;;;;;;;3.87;1.50;;;24.10;99.90;;;;;;6682522;89;20199;-82
2021/09/10 16:20:37;;;;;;;3.15;1.10;;;23.80;99.90;;;;;;6695885;89;20148;-81
2021/09/10 16:30:38;;;;;;;1.65;0.50;;;22.60;99.90;;;;;;6692755;89;20188;-82
2021/09/10 17:11:49;;;;;;;1.75;1.00;;;20.40;99.90;;;;;;6709728;88;20187;-81
2021/09/10 17:21:52;;;;;;;2.15;1.05;;;20.60;99.90;;;;;;6711871;88;20322;-80
2021/09/10 17:31:52;;;;;;;1.90;0.88;;;20.40;99.90;;;;;;6708313;88;20697;-81
2021/09/10 17:41:53;;;;;;;1.58;1.00;;;20.50;99.90;;;;;;6711303;88;20198;-81
2021/09/10 17:51:53;;;;;;;2.15;1.05;;;20.60;99.90;;;;;;6712307;88;20311;-81
2021/09/10 18:01:56;;;;;;;3.90;1.90;;;20.40;99.90;;;;;;6702696;88;20220;-83
2021/09/10 18:12:37;;;;;;;6.40;2.75;;;20.30;99.90;;;;;;6706365;77;20228;-81
2021/09/10 18:22:38;;;;;;;5.80;1.50;;;20.30;99.90;;;;;;6706118;88;20207;-82
2021/09/10 18:32:38;;;;;;;4.60;1.58;;;20.00;99.90;;;;;;6702656;88;20769;-82
2021/09/10 18:42:39;;;;;;;3.75;1.62;;;20.00;99.90;;;;;;6698869;88;20729;-81
2021/09/10 18:52:41;;;;;;;4.50;2.30;;;19.80;99.90;;;;;;6704216;88;20235;-80
2021/09/10 19:02:43;;;;;;;4.87;1.80;;;19.90;99.90;;;;;;6700231;88;20184;-81
2021/09/10 19:12:44;;;;;;;6.05;2.22;;;19.80;99.90;;;;;;6697079;88;20205;-82
2021/09/10 19:22:45;;;;;;;3.97;1.57;;;19.70;99.90;;;;;;6708814;88;20811;-81
2021/09/10 19:32:46;;;;;;;3.25;1.77;;;19.70;99.90;;;;;;6714299;88;20199;-81
2021/09/10 19:42:46;;;;;;;2.72;1.70;;;19.70;99.90;;;;;;6712315;88;20232;-80
2021/09/10 19:52:47;;;;;;;4.15;1.58;;;19.40;99.90;;;;;;6712585;88;20336;-80
2021/09/10 20:02:47;;;;;;;4.20;1.58;;;19.40;99.90;;;;;;6703143;88;20202;-81
2021/09/10 20:12:48;;;;;;;3.15;1.50;;;19.20;99.90;;;;;;6712181;88;20227;-78
2021/09/10 20:22:48;;;;;;;4.27;1.50;;;19.20;99.90;;;;;;6706963;88;20248;-78
2021/09/10 20:32:50;;;;;;;3.83;2.30;;;19.30;99.90;;;;;;6700683;88;20326;-78
2021/09/10 20:42:51;;;;;;;3.95;2.10;;;19.20;99.90;;;;;;6704160;88;20300;-78
2021/09/10 20:52:51;;;;;;;3.42;2.00;;;19.20;99.90;;;;;;6704551;88;20203;-78
2021/09/10 21:02:52;;;;;;;7.30;3.53;;;19.20;99.90;;;;;;6700264;88;20190;-78
2021/09/10 21:12:53;;;;;;;5.68;2.90;;;19.40;99.90;;;;;;6704660;88;20836;-78
2021/09/10 21:22:54;;;;;;;4.43;2.40;;;19.20;99.90;;;;;;6699929;88;20257;-78
2021/09/10 21:32:55;;;;;;;4.45;2.70;;;19.20;99.90;;;;;;6703982;88;20252;-78
2021/09/10 21:42:55;;;;;;;6.82;2.87;;;19.00;99.90;;;;;;6703159;88;20629;-78
2021/09/10 21:52:56;;;;;;;5.70;3.83;;;19.00;99.90;;;;;;6709526;88;20877;-78
2021/09/10 22:02:56;;;;;;;8.10;4.35;;;18.90;99.90;;;;;;6707318;88;20193;-77
2021/09/10 22:12:57;;;;;;;6.90;3.83;;;19.10;99.90;;;;;;6711029;88;20619;-78
2021/09/10 22:22:57;;;;;;;6.70;3.28;;;19.00;99.90;;;;;;6705143;88;20297;-77
2021/09/10 22:32:58;;;;;;;8.20;3.65;;;18.90;99.90;;;;;;6708582;88;20687;-77
2021/09/10 22:42:58;;;;;;;6.00;3.60;;;18.80;99.90;;;;;;6704590;88;20760;-79
2021/09/10 22:52:59;;;;;;;4.53;3.30;;;18.80;99.90;;;;;;6701153;88;20332;-77
2021/09/10 23:03:00;;;;;;;7.82;2.95;;;18.60;99.90;;;;;;6702254;88;20244;-78
2021/09/10 23:13:00;;;;;;;4.60;2.90;;;18.80;99.90;;;;;;6702561;88;20258;-77
2021/09/10 23:23:01;;;;;;;5.93;3.50;;;18.80;99.90;;;;;;6704403;88;20218;-79
2021/09/10 23:33:01;;;;;;;4.47;3.20;;;18.70;99.90;;;;;;6705362;88;20338;-77
2021/09/10 23:43:02;;;;;;;8.00;2.90;;;18.70;99.90;;;;;;6704217;88;20331;-80
2021/09/10 23:53:03;;;;;;;6.43;2.83;;;18.80;99.90;;;;;;6703329;88;20698;-78
